createdAt,value
2023-11-14T00:00:43.068Z,6.15
2023-11-14T00:03:10.187Z,9.88
2023-11-14T00:05:37.277Z,8.65
2023-11-14T00:08:04.487Z,10.70
2023-11-14T00:10:31.535Z,9.32
2023-11-14T00:12:58.630Z,9.23
2023-11-14T00:15:27.501Z,7.85
2023-11-14T00:17:54.839Z,10.65
2023-11-14T00:20:21.763Z,9.27
2023-11-14T00:22:48.822Z,11.40
2023-11-14T00:25:15.878Z,11.68
2023-11-14T00:27:42.823Z,9.30
2023-11-14T00:30:10.326Z,9.63
2023-11-14T00:32:37.362Z,8.68
2023-11-14T00:35:04.653Z,8.95
2023-11-14T00:37:31.696Z,8.35
2023-11-14T00:39:58.637Z,8.98
2023-11-14T00:42:25.623Z,9.52
2023-11-14T00:44:52.555Z,7.18
2023-11-14T00:47:19.507Z,9.70
2023-11-14T00:49:46.441Z,8.05
2023-11-14T00:52:13.462Z,7.93
2023-11-14T00:54:40.338Z,8.80
2023-11-14T00:57:07.537Z,7.32
2023-11-14T00:59:34.521Z,6.85
2023-11-14T01:02:01.557Z,7.35
2023-11-14T01:04:28.523Z,7.13
2023-11-14T01:06:55.470Z,6.28
2023-11-14T01:09:22.625Z,6.93
2023-11-14T01:11:50.010Z,7.93
2023-11-14T01:14:16.970Z,7.25
2023-11-14T01:16:43.954Z,7.53
2023-11-14T01:19:10.964Z,7.25
2023-11-14T01:21:38.018Z,5.93
2023-11-14T01:24:05.297Z,6.22
2023-11-14T01:26:35.698Z,4.55
2023-11-14T01:29:02.906Z,6.47
2023-11-14T01:31:29.860Z,5.93
2023-11-14T01:33:56.836Z,6.40
2023-11-14T01:36:24.096Z,5.63
2023-11-14T01:38:51.554Z,7.30
2023-11-14T01:41:18.498Z,4.75
2023-11-14T01:43:49.058Z,4.80
2023-11-14T01:46:17.979Z,7.15
2023-11-14T01:48:49.676Z,4.57
2023-11-14T01:51:17.805Z,3.60
2023-11-14T01:53:44.912Z,5.07
2023-11-14T01:56:12.831Z,4.80
2023-11-14T01:58:39.875Z,4.32
2023-11-14T02:01:06.976Z,5.53
2023-11-14T02:03:34.066Z,3.67
2023-11-14T02:06:01.699Z,6.43
2023-11-14T02:08:32.170Z,7.63
2023-11-14T02:10:59.874Z,9.05
2023-11-14T02:13:27.175Z,6.47
2023-11-14T02:15:54.212Z,7.00
2023-11-14T02:18:21.599Z,4.85
2023-11-14T02:20:48.510Z,5.03
2023-11-14T02:23:18.798Z,6.43
2023-11-14T02:25:46.601Z,4.57
2023-11-14T02:28:13.721Z,6.20
2023-11-14T02:30:40.801Z,6.95
2023-11-14T02:33:08.872Z,4.13
2023-11-14T02:35:35.950Z,6.25
2023-11-14T02:38:03.532Z,6.85
2023-11-14T02:40:30.541Z,6.72
2023-11-14T02:42:57.510Z,7.68
2023-11-14T02:45:24.456Z,3.72
2023-11-14T02:47:51.481Z,5.13
2023-11-14T02:50:30.631Z,5.15
2023-11-14T02:52:57.581Z,7.45
2023-11-14T02:55:24.468Z,5.57
2023-11-14T02:57:51.429Z,4.13
2023-11-14T03:00:18.532Z,8.50
2023-11-14T03:02:45.650Z,4.38
2023-11-14T03:05:12.854Z,8.60
2023-11-14T03:07:39.876Z,6.85
2023-11-14T03:10:07.571Z,6.07
2023-11-14T03:12:34.538Z,5.03
2023-11-14T03:15:01.618Z,4.88
2023-11-14T03:17:28.553Z,8.18
2023-11-14T03:19:55.511Z,8.65
2023-11-14T03:22:22.434Z,6.60
2023-11-14T03:24:49.362Z,7.82
2023-11-14T03:27:16.308Z,7.13
2023-11-14T03:29:43.233Z,7.88
2023-11-14T03:32:10.197Z,7.28
2023-11-14T03:34:37.162Z,10.10
2023-11-14T03:37:04.294Z,6.55
2023-11-14T03:39:31.174Z,5.78
2023-11-14T03:41:58.086Z,8.73
2023-11-14T03:44:25.034Z,9.48
2023-11-14T03:46:51.992Z,10.20
2023-11-14T03:49:18.930Z,6.22
2023-11-14T03:51:45.824Z,11.05
2023-11-14T03:54:12.735Z,10.27
2023-11-14T03:56:39.643Z,8.45
2023-11-14T03:59:06.575Z,6.30
2023-11-14T04:01:33.561Z,5.47
2023-11-14T04:04:00.652Z,8.95
2023-11-14T04:06:27.553Z,6.20
2023-11-14T04:08:54.529Z,7.13
2023-11-14T04:11:21.519Z,7.05
2023-11-14T04:13:48.547Z,8.77
2023-11-14T04:16:15.490Z,6.78
2023-11-14T04:18:42.437Z,6.28
2023-11-14T04:21:10.387Z,4.28
2023-11-14T04:23:37.495Z,7.15
2023-11-14T04:26:04.556Z,7.97
2023-11-14T04:28:31.508Z,6.68
2023-11-14T04:30:58.438Z,6.55
2023-11-14T04:33:25.444Z,8.77
2023-11-14T04:35:52.324Z,7.88
2023-11-14T04:38:19.217Z,7.10
2023-11-14T04:40:46.165Z,5.78
2023-11-14T04:43:13.094Z,6.72
2023-11-14T04:45:39.981Z,6.32
2023-11-14T04:48:07.083Z,9.23
2023-11-14T04:50:33.984Z,6.65
2023-11-14T04:53:00.886Z,8.45
2023-11-14T04:55:27.805Z,8.07
2023-11-14T04:57:54.687Z,7.70
2023-11-14T05:00:21.631Z,4.95
2023-11-14T05:02:48.639Z,6.65
2023-11-14T05:05:15.710Z,6.35
2023-11-14T05:07:42.627Z,5.20
2023-11-14T05:10:10.836Z,12.15
2023-11-14T05:12:37.990Z,6.50
2023-11-14T05:15:05.202Z,9.23
2023-11-14T05:17:32.204Z,7.07
2023-11-14T05:19:59.162Z,5.75
2023-11-14T05:22:26.397Z,5.30
2023-11-14T05:24:53.318Z,7.00
2023-11-14T05:27:20.881Z,5.50
2023-11-14T05:29:47.794Z,7.28
2023-11-14T05:32:14.742Z,8.05
2023-11-14T05:34:41.717Z,6.57
2023-11-14T05:37:08.800Z,8.75
2023-11-14T05:39:35.759Z,7.47
2023-11-14T05:42:02.693Z,6.43
2023-11-14T05:44:30.674Z,11.27
2023-11-14T05:46:57.669Z,7.32
2023-11-14T05:49:24.710Z,6.38
2023-11-14T05:51:51.642Z,8.02
2023-11-14T05:54:18.559Z,7.55
2023-11-14T05:56:45.513Z,6.07
2023-11-14T05:59:12.452Z,7.25
2023-11-14T06:01:39.463Z,4.15
2023-11-14T06:04:06.791Z,8.93
2023-11-14T06:06:33.808Z,5.55
2023-11-14T06:09:00.702Z,7.60
2023-11-14T06:11:27.676Z,11.38
2023-11-14T06:13:54.650Z,7.25
2023-11-14T06:16:22.674Z,9.85
2023-11-14T06:18:50.740Z,10.15
2023-11-14T06:21:17.668Z,12.23
2023-11-14T06:23:44.575Z,6.82
2023-11-14T06:26:11.516Z,7.50
2023-11-14T06:28:38.497Z,12.48
2023-11-14T06:31:05.422Z,10.40
2023-11-14T06:33:32.690Z,10.63
2023-11-14T06:36:00.425Z,13.05
2023-11-14T06:38:28.075Z,555.45
2023-11-14T06:40:55.991Z,664.83
2023-11-14T06:43:22.999Z,197.18
2023-11-14T06:45:50.057Z,29.52
2023-11-14T06:48:17.178Z,13.13
2023-11-14T06:50:45.279Z,25.63
2023-11-14T06:53:13.378Z,18.38
2023-11-14T06:55:41.415Z,12.45
2023-11-14T06:58:08.387Z,10.40
2023-11-14T07:00:35.352Z,7.88
2023-11-14T07:03:02.362Z,10.85
2023-11-14T07:05:29.331Z,61.85
2023-11-14T07:07:56.755Z,14.35
2023-11-14T07:10:23.833Z,31.35
2023-11-14T07:12:50.970Z,19.42
2023-11-14T07:15:17.929Z,18.58
2023-11-14T07:17:44.986Z,15.38
2023-11-14T07:20:12.626Z,11.27
2023-11-14T07:22:42.632Z,6.57
2023-11-14T07:25:10.093Z,13.25
2023-11-14T07:27:37.393Z,10.35
2023-11-14T07:30:04.642Z,17.08
2023-11-14T07:32:31.587Z,28.98
2023-11-14T07:34:58.641Z,55.90
2023-11-14T07:37:25.550Z,17.02
2023-11-14T07:39:54.479Z,17.52
2023-11-14T07:42:23.760Z,27.33
2023-11-14T07:44:51.214Z,32.67
2023-11-14T07:47:21.210Z,19.67
2023-11-14T07:49:48.853Z,9.10
2023-11-14T07:52:15.909Z,11.45
2023-11-14T07:54:42.866Z,10.73
2023-11-14T07:57:09.761Z,14.10
2023-11-14T07:59:36.660Z,16.35
2023-11-14T08:02:03.780Z,26.35
2023-11-14T08:04:30.793Z,17.63
2023-11-14T08:06:57.878Z,10.00
2023-11-14T08:09:24.926Z,13.80
2023-11-14T08:11:51.823Z,14.52
2023-11-14T08:14:18.775Z,12.75
2023-11-14T08:16:45.784Z,19.60
2023-11-14T08:19:12.873Z,10.50
2023-11-14T08:21:39.805Z,13.77
2023-11-14T08:24:06.891Z,11.20
2023-11-14T08:26:33.818Z,28.02
2023-11-14T08:29:00.781Z,10.32
2023-11-14T08:31:27.822Z,18.58
2023-11-14T08:33:54.870Z,16.10
2023-11-14T08:36:21.844Z,12.82
2023-11-14T08:38:48.798Z,10.05
2023-11-14T08:41:15.748Z,11.48
2023-11-14T08:43:42.825Z,8.73
2023-11-14T08:46:09.753Z,19.38
2023-11-14T08:48:36.768Z,13.00
2023-11-14T08:51:03.825Z,14.55
2023-11-14T08:53:30.983Z,16.58
2023-11-14T08:55:57.915Z,13.43
2023-11-14T08:58:24.909Z,11.40
2023-11-14T09:00:51.998Z,15.80
2023-11-14T09:03:19.013Z,8.45
2023-11-14T09:05:45.987Z,8.02
2023-11-14T09:08:13.041Z,11.70
2023-11-14T09:10:40.046Z,12.48
2023-11-14T09:13:06.962Z,12.27
2023-11-14T09:15:33.966Z,12.20
2023-11-14T09:18:01.216Z,9.95
2023-11-14T09:20:28.318Z,23.00
2023-11-14T09:22:57.897Z,9.75
2023-11-14T09:25:26.497Z,11.32
2023-11-14T09:27:53.481Z,50.03
2023-11-14T09:30:21.034Z,92.28
2023-11-14T09:32:48.400Z,57.97
2023-11-14T09:35:17.057Z,16.73
2023-11-14T09:37:44.394Z,35.08
2023-11-14T09:40:15.310Z,15.98
2023-11-14T09:42:42.331Z,16.58
2023-11-14T09:45:09.793Z,14.25
2023-11-14T09:47:36.848Z,18.30
2023-11-14T09:50:04.589Z,20.88
2023-11-14T09:52:32.645Z,14.43
2023-11-14T09:54:59.908Z,38.03
2023-11-14T09:57:27.432Z,15.88
2023-11-14T09:59:54.998Z,12.38
2023-11-14T10:02:21.973Z,12.82
2023-11-14T10:04:49.102Z,13.75
2023-11-14T10:07:19.821Z,8.70
2023-11-14T10:09:48.225Z,9.70
2023-11-14T10:12:38.175Z,8.75
2023-11-14T10:15:05.947Z,13.65
2023-11-14T10:17:44.242Z,12.20
2023-11-14T10:20:12.038Z,10.98
2023-11-14T10:22:49.831Z,7.72
2023-11-14T10:25:46.234Z,9.00
2023-11-14T10:28:13.155Z,16.33
2023-11-14T10:30:46.029Z,10.52
2023-11-14T10:33:14.058Z,10.27
2023-11-14T10:35:41.824Z,11.68
2023-11-14T10:38:23.159Z,5.32
2023-11-14T10:40:55.733Z,12.48
2023-11-14T10:43:30.193Z,12.82
2023-11-14T10:45:59.870Z,6.18
2023-11-14T10:48:27.267Z,9.68
2023-11-14T10:50:54.639Z,11.73
2023-11-14T10:53:22.220Z,10.10
2023-11-14T10:55:52.406Z,8.90
2023-11-14T10:58:20.751Z,9.48
2023-11-14T11:00:48.205Z,9.90
2023-11-14T11:03:15.822Z,11.23
2023-11-14T11:05:43.120Z,9.15
2023-11-14T11:08:12.059Z,11.30
2023-11-14T11:10:41.271Z,10.82
2023-11-14T11:13:12.552Z,7.97
2023-11-14T11:15:46.090Z,10.27
2023-11-14T11:18:13.707Z,13.85
2023-11-14T11:20:41.038Z,7.32
2023-11-14T11:23:13.222Z,9.23
2023-11-14T11:25:41.457Z,13.75
2023-11-14T11:28:20.720Z,7.97
2023-11-14T11:31:06.348Z,8.52
2023-11-14T11:33:33.865Z,11.02
2023-11-14T11:36:22.538Z,8.30
2023-11-14T11:39:04.534Z,11.10
2023-11-14T11:41:33.248Z,13.00
2023-11-14T11:44:09.068Z,10.82
2023-11-14T11:46:40.244Z,9.15
2023-11-14T11:49:10.415Z,6.40
2023-11-14T11:51:41.957Z,11.07
2023-11-14T11:54:27.955Z,10.53
2023-11-14T11:57:07.193Z,9.70
2023-11-14T11:59:43.733Z,7.85
2023-11-14T12:02:16.232Z,10.88
2023-11-14T12:04:43.374Z,9.43
2023-11-14T12:07:10.547Z,8.07
2023-11-14T12:09:38.236Z,11.48
2023-11-14T12:12:05.513Z,9.70
2023-11-14T12:14:32.929Z,11.35
2023-11-14T12:17:00.607Z,7.00
2023-11-14T12:19:27.770Z,8.35
2023-11-14T12:21:55.946Z,8.50
2023-11-14T12:24:22.987Z,11.55
2023-11-14T12:26:50.370Z,8.00
2023-11-14T12:29:18.945Z,11.93
2023-11-14T12:31:48.226Z,10.00
2023-11-14T12:34:28.488Z,7.32
2023-11-14T12:37:15.455Z,8.38
2023-11-14T12:39:42.446Z,6.13
2023-11-14T12:42:09.475Z,8.75
2023-11-14T12:44:37.214Z,10.02
2023-11-14T12:47:05.032Z,8.15
2023-11-14T12:49:31.990Z,10.80
2023-11-14T12:51:59.850Z,10.57
2023-11-14T12:54:27.018Z,12.95
2023-11-14T12:56:55.023Z,12.63
2023-11-14T12:59:22.511Z,9.50
2023-11-14T13:01:52.532Z,8.88
2023-11-14T13:04:19.758Z,9.02
2023-11-14T13:06:48.292Z,5.80
2023-11-14T13:09:16.899Z,7.82
2023-11-14T13:11:44.480Z,9.10
2023-11-14T13:14:11.492Z,5.97
2023-11-14T13:16:38.539Z,9.98
2023-11-14T13:19:05.760Z,8.35
2023-11-14T13:21:32.982Z,7.88
2023-11-14T13:23:59.962Z,8.57
2023-11-14T13:26:26.957Z,10.02
2023-11-14T13:28:53.913Z,11.07
2023-11-14T13:31:20.803Z,10.02
2023-11-14T13:33:48.013Z,9.90
2023-11-14T13:36:15.408Z,6.60
2023-11-14T13:38:42.436Z,10.25
2023-11-14T13:43:39.143Z,8.38
2023-11-14T13:46:10.883Z,19.63
2023-11-14T13:48:41.900Z,9.50
2023-11-14T13:51:08.923Z,8.23
2023-11-14T13:53:35.886Z,9.45
2023-11-14T13:56:02.933Z,8.75
2023-11-14T13:58:29.880Z,11.43
2023-11-14T14:00:56.834Z,7.90
2023-11-14T14:03:23.873Z,12.63
2023-11-14T14:05:50.849Z,10.40
2023-11-14T14:08:17.830Z,7.15
2023-11-14T14:10:44.749Z,7.32
2023-11-14T14:13:11.777Z,6.80
2023-11-14T14:15:38.662Z,8.13
2023-11-14T14:18:05.870Z,10.50
2023-11-14T14:20:32.953Z,13.52
2023-11-14T14:22:59.929Z,10.07
2023-11-14T14:25:26.804Z,8.20
2023-11-14T14:27:53.813Z,9.75
2023-11-14T14:30:20.749Z,10.77
2023-11-14T14:32:47.682Z,8.85
2023-11-14T14:35:15.089Z,8.68
2023-11-14T14:37:42.509Z,6.95
2023-11-14T14:40:10.474Z,5.80
2023-11-14T14:42:38.394Z,10.98
2023-11-14T14:45:10.455Z,8.75
2023-11-14T14:47:41.183Z,10.18
2023-11-14T14:50:09.995Z,8.85
2023-11-14T14:52:36.982Z,11.45
2023-11-14T14:55:04.726Z,10.75
2023-11-14T14:57:32.162Z,8.32
2023-11-14T14:59:59.067Z,9.57
2023-11-14T15:02:26.184Z,7.15
2023-11-14T15:04:53.488Z,6.85
2023-11-14T15:07:20.528Z,9.70
2023-11-14T15:09:47.611Z,11.02
2023-11-14T15:12:14.557Z,12.30
2023-11-14T15:14:41.501Z,20.90
2023-11-14T15:17:08.960Z,15.35
2023-11-14T15:19:35.902Z,15.07
2023-11-14T15:22:03.024Z,13.85
2023-11-14T15:24:29.941Z,13.02
2023-11-14T15:26:57.919Z,10.07
2023-11-14T15:29:25.267Z,10.93
2023-11-14T15:31:52.172Z,10.32
2023-11-14T15:34:19.313Z,13.70
2023-11-14T15:36:46.233Z,9.70
2023-11-14T15:39:13.298Z,10.23
2023-11-14T15:41:40.206Z,12.45
2023-11-14T15:44:07.197Z,10.55
2023-11-14T15:46:34.271Z,10.00
2023-11-14T15:49:01.828Z,9.23
2023-11-14T15:51:28.754Z,12.30
2023-11-14T15:53:55.684Z,8.80
2023-11-14T15:56:22.783Z,11.10
2023-11-14T15:58:49.802Z,9.60
2023-11-14T16:01:16.762Z,8.98
2023-11-14T16:03:43.921Z,13.63
2023-11-14T16:06:11.034Z,16.77
2023-11-14T16:08:37.994Z,12.68
2023-11-14T16:11:05.070Z,12.30
2023-11-14T16:13:32.030Z,10.43
2023-11-14T16:15:59.173Z,9.40
2023-11-14T16:18:26.227Z,20.27
2023-11-14T16:20:53.253Z,13.45
2023-11-14T16:23:20.187Z,11.73
2023-11-14T16:25:47.194Z,13.05
2023-11-14T16:28:14.461Z,10.93
2023-11-14T16:30:41.479Z,39.00
2023-11-14T16:33:08.774Z,16.02
2023-11-14T16:35:35.775Z,46.03
2023-11-14T16:38:02.890Z,18.27
2023-11-14T16:40:29.844Z,14.00
2023-11-14T16:42:57.056Z,10.23
2023-11-14T16:45:23.998Z,19.77
2023-11-14T16:47:51.282Z,37.97
2023-11-14T16:50:18.911Z,8.98
2023-11-14T16:52:45.929Z,11.27
2023-11-14T16:55:12.926Z,17.98
2023-11-14T16:57:39.872Z,8.18
2023-11-14T17:00:07.505Z,10.60
2023-11-14T17:02:35.124Z,11.65
2023-11-14T17:05:02.591Z,9.45
2023-11-14T17:07:29.640Z,21.38
2023-11-14T17:09:56.798Z,7.88
2023-11-14T17:12:23.692Z,11.50
2023-11-14T17:14:50.844Z,11.05
2023-11-14T17:17:17.833Z,8.40
2023-11-14T17:19:44.763Z,8.13
2023-11-14T17:22:11.742Z,9.00
2023-11-14T17:24:38.763Z,11.50
2023-11-14T17:27:05.745Z,9.07
2023-11-14T17:29:32.704Z,8.65
2023-11-14T17:31:59.752Z,11.70
2023-11-14T17:34:27.211Z,13.02
2023-11-14T17:36:54.103Z,11.82
2023-11-14T17:39:21.019Z,9.57
2023-11-14T17:41:47.922Z,20.50
2023-11-14T17:44:14.887Z,13.43
2023-11-14T17:46:41.895Z,12.27
2023-11-14T17:49:08.843Z,15.23
2023-11-14T17:51:38.863Z,11.95
2023-11-14T17:54:07.037Z,18.55
2023-11-14T17:56:34.255Z,11.07
2023-11-14T17:59:01.256Z,13.73
2023-11-14T18:01:28.816Z,12.63
2023-11-14T18:03:56.033Z,9.38
2023-11-14T18:06:23.254Z,31.65
2023-11-14T18:08:50.175Z,14.65
2023-11-14T18:11:17.120Z,23.77
2023-11-14T18:13:44.098Z,13.95
2023-11-14T18:16:11.085Z,24.88
2023-11-14T18:18:38.074Z,26.60
2023-11-14T18:21:05.267Z,10.32
2023-11-14T18:23:32.254Z,10.13
2023-11-14T18:25:59.314Z,14.60
2023-11-14T18:28:26.274Z,37.00
2023-11-14T18:30:54.108Z,14.05
2023-11-14T18:33:22.400Z,9.98
2023-11-14T18:35:49.289Z,37.28
2023-11-14T18:38:16.245Z,13.00
2023-11-14T18:40:43.372Z,9.63
2023-11-14T18:43:10.304Z,9.45
2023-11-14T18:45:37.219Z,10.65
2023-11-14T18:48:04.491Z,10.60
2023-11-14T18:50:31.507Z,15.07
2023-11-14T18:52:58.421Z,10.40
2023-11-14T18:55:25.372Z,14.70
2023-11-14T18:57:52.300Z,8.98
2023-11-14T19:00:19.437Z,16.20
2023-11-14T19:02:46.600Z,7.95
2023-11-14T19:05:15.270Z,21.00
2023-11-14T19:07:43.368Z,11.45
2023-11-14T19:10:10.493Z,9.27
2023-11-14T19:12:37.477Z,7.70
2023-11-14T19:15:04.757Z,11.60
2023-11-14T19:17:31.859Z,18.85
2023-11-14T19:19:59.008Z,11.05
2023-11-14T19:23:08.633Z,14.02
2023-11-14T19:25:12.835Z,11.50
2023-11-14T19:27:39.750Z,9.40
2023-11-14T19:30:07.392Z,9.52
2023-11-14T19:32:34.356Z,11.18
2023-11-14T19:35:01.297Z,12.15
2023-11-14T19:37:28.217Z,12.02
2023-11-14T19:39:55.161Z,15.60
2023-11-14T19:42:22.084Z,8.85
2023-11-14T19:44:49.235Z,8.05
2023-11-14T19:47:16.207Z,10.38
2023-11-14T19:49:45.337Z,27.73
2023-11-14T19:52:13.972Z,9.68
2023-11-14T19:54:41.194Z,7.60
2023-11-14T19:57:08.193Z,10.60
2023-11-14T19:59:35.152Z,8.43
2023-11-14T20:02:02.146Z,9.88
2023-11-14T20:04:29.124Z,8.90
2023-11-14T20:06:56.533Z,9.27
2023-11-14T20:09:23.527Z,10.50
2023-11-14T20:11:50.562Z,11.45
2023-11-14T20:14:17.607Z,11.07
2023-11-14T20:16:44.626Z,7.13
2023-11-14T20:19:11.561Z,11.85
2023-11-14T20:21:38.488Z,7.78
2023-11-14T20:24:05.825Z,12.90
2023-11-14T20:26:32.827Z,5.90
2023-11-14T20:28:59.825Z,7.38
2023-11-14T20:31:26.787Z,9.65
2023-11-14T20:33:53.710Z,10.18
2023-11-14T20:36:20.617Z,8.20
2023-11-14T20:38:47.588Z,12.88
2023-11-14T20:41:15.684Z,9.48
2023-11-14T20:43:42.653Z,8.45
2023-11-14T20:46:09.698Z,7.30
2023-11-14T20:48:36.890Z,8.63
2023-11-14T20:51:06.506Z,10.80
2023-11-14T20:53:35.539Z,10.27
2023-11-14T20:56:02.485Z,9.50
2023-11-14T20:58:29.403Z,9.23
2023-11-14T21:00:56.293Z,7.20
2023-11-14T21:03:23.380Z,10.00
2023-11-14T21:05:50.750Z,7.20
2023-11-14T21:08:17.749Z,8.43
2023-11-14T21:10:44.812Z,6.18
2023-11-14T21:13:11.881Z,10.55
2023-11-14T21:15:38.782Z,7.43
2023-11-14T21:18:06.005Z,8.93
2023-11-14T21:20:33.031Z,7.63
2023-11-14T21:22:59.959Z,7.88
2023-11-14T21:25:26.892Z,8.95
2023-11-14T21:27:53.855Z,7.25
2023-11-14T21:30:20.927Z,7.72
2023-11-14T21:32:47.959Z,7.53
2023-11-14T21:35:15.513Z,8.07
2023-11-14T21:37:42.460Z,8.95
2023-11-14T21:40:10.060Z,9.80
2023-11-14T21:42:36.968Z,5.97
2023-11-14T21:45:04.236Z,10.40
2023-11-14T21:47:31.239Z,10.00
2023-11-14T21:49:58.177Z,8.63
2023-11-14T21:52:25.091Z,11.00
2023-11-14T21:54:52.376Z,5.78
2023-11-14T21:57:19.266Z,8.55
2023-11-14T21:59:46.374Z,8.50
2023-11-14T22:02:13.422Z,9.23
2023-11-14T22:04:40.372Z,7.00
2023-11-14T22:07:07.277Z,7.30
2023-11-14T22:09:34.399Z,8.05
2023-11-14T22:12:01.304Z,12.00
2023-11-14T22:14:28.629Z,10.35
2023-11-14T22:16:55.556Z,6.18
2023-11-14T22:19:22.456Z,7.88
2023-11-14T22:21:49.399Z,6.82
2023-11-14T22:24:16.292Z,6.90
2023-11-14T22:26:43.224Z,6.38
2023-11-14T22:29:10.159Z,8.48
2023-11-14T22:31:37.115Z,7.75
2023-11-14T22:34:04.096Z,5.13
2023-11-14T22:36:30.987Z,9.15
2023-11-14T22:38:57.876Z,6.43
2023-11-14T22:41:24.855Z,8.93
2023-11-14T22:43:51.778Z,11.68
2023-11-14T22:46:21.936Z,9.15
2023-11-14T22:48:48.971Z,7.05
2023-11-14T22:51:15.892Z,6.70
2023-11-14T22:53:42.831Z,6.63
2023-11-14T22:56:30.094Z,10.52
2023-11-14T22:58:56.994Z,9.30
2023-11-14T23:01:24.020Z,12.93
2023-11-14T23:03:51.095Z,6.30
2023-11-14T23:06:18.118Z,6.75
2023-11-14T23:08:45.111Z,8.68
2023-11-14T23:11:12.069Z,5.05
2023-11-14T23:13:39.088Z,7.88
2023-11-14T23:16:06.632Z,5.75
2023-11-14T23:18:33.827Z,7.35
2023-11-14T23:21:00.929Z,11.30
2023-11-14T23:23:28.082Z,7.00
2023-11-14T23:25:55.156Z,8.43
2023-11-14T23:28:22.144Z,8.38
2023-11-14T23:30:49.232Z,10.15
2023-11-14T23:33:16.215Z,5.70
2023-11-14T23:35:43.309Z,6.20
2023-11-14T23:38:10.741Z,10.75
2023-11-14T23:40:37.870Z,8.90
2023-11-14T23:43:04.801Z,8.15
2023-11-14T23:45:31.795Z,7.10
2023-11-14T23:47:58.759Z,7.32
2023-11-14T23:50:25.697Z,7.45
2023-11-14T23:52:52.734Z,8.25
2023-11-14T23:55:19.755Z,5.38
2023-11-14T23:57:46.745Z,7.97
